sensor_id;sensor_type;location;lat;lon;timestamp;temperature;humidity
58519;DHT22;44310;48.106;12.008;2023-11-21T00:01:17;17.00;85.50
58519;DHT22;44310;48.106;12.008;2023-11-21T00:03:44;16.90;85.60
58519;DHT22;44310;48.106;12.008;2023-11-21T00:06:11;16.90;85.90
58519;DHT22;44310;48.106;12.008;2023-11-21T00:08:39;16.90;85.90
58519;DHT22;44310;48.106;12.008;2023-11-21T00:11:06;16.90;86.10
58519;DHT22;44310;48.106;12.008;2023-11-21T00:13:34;16.90;86.60
58519;DHT22;44310;48.106;12.008;2023-11-21T00:16:02;17.00;86.60
58519;DHT22;44310;48.106;12.008;2023-11-21T00:18:29;16.90;86.50
58519;DHT22;44310;48.106;12.008;2023-11-21T00:20:56;16.90;86.70
58519;DHT22;44310;48.106;12.008;2023-11-21T00:23:26;17.00;86.90
58519;DHT22;44310;48.106;12.008;2023-11-21T00:25:53;16.90;86.90
58519;DHT22;44310;48.106;12.008;2023-11-21T00:28:20;16.90;86.90
58519;DHT22;44310;48.106;12.008;2023-11-21T00:30:47;16.90;86.90
58519;DHT22;44310;48.106;12.008;2023-11-21T00:33:14;16.90;87.10
58519;DHT22;44310;48.106;12.008;2023-11-21T00:35:41;16.90;87.30
58519;DHT22;44310;48.106;12.008;2023-11-21T00:38:09;16.90;87.50
58519;DHT22;44310;48.106;12.008;2023-11-21T00:40:36;16.90;87.60
58519;DHT22;44310;48.106;12.008;2023-11-21T00:43:05;16.90;87.90
58519;DHT22;44310;48.106;12.008;2023-11-21T00:45:32;17.00;88.30
58519;DHT22;44310;48.106;12.008;2023-11-21T00:47:59;17.10;89.10
58519;DHT22;44310;48.106;12.008;2023-11-21T00:50:26;17.10;89.30
58519;DHT22;44310;48.106;12.008;2023-11-21T00:52:55;17.10;89.20
58519;DHT22;44310;48.106;12.008;2023-11-21T00:55:22;17.30;89.20
58519;DHT22;44310;48.106;12.008;2023-11-21T00:57:50;17.10;88.80
58519;DHT22;44310;48.106;12.008;2023-11-21T01:00:17;17.10;88.80
58519;DHT22;44310;48.106;12.008;2023-11-21T01:02:44;17.10;89.10
58519;DHT22;44310;48.106;12.008;2023-11-21T01:05:12;17.20;89.60
58519;DHT22;44310;48.106;12.008;2023-11-21T01:07:39;17.10;89.90
58519;DHT22;44310;48.106;12.008;2023-11-21T01:10:06;17.10;90.00
58519;DHT22;44310;48.106;12.008;2023-11-21T01:12:36;17.10;90.00
58519;DHT22;44310;48.106;12.008;2023-11-21T01:15:06;17.10;89.80
58519;DHT22;44310;48.106;12.008;2023-11-21T01:17:35;17.10;89.30
58519;DHT22;44310;48.106;12.008;2023-11-21T01:20:03;17.00;89.70
58519;DHT22;44310;48.106;12.008;2023-11-21T01:22:33;17.00;89.00
58519;DHT22;44310;48.106;12.008;2023-11-21T01:25:00;17.00;88.90
58519;DHT22;44310;48.106;12.008;2023-11-21T01:27:28;17.00;88.80
58519;DHT22;44310;48.106;12.008;2023-11-21T01:29:55;17.00;88.80
58519;DHT22;44310;48.106;12.008;2023-11-21T01:32:22;17.00;88.70
58519;DHT22;44310;48.106;12.008;2023-11-21T01:34:51;17.00;88.60
58519;DHT22;44310;48.106;12.008;2023-11-21T01:37:18;16.90;88.50
58519;DHT22;44310;48.106;12.008;2023-11-21T01:39:45;16.90;88.50
58519;DHT22;44310;48.106;12.008;2023-11-21T01:42:13;17.00;88.40
58519;DHT22;44310;48.106;12.008;2023-11-21T01:44:40;17.00;88.30
58519;DHT22;44310;48.106;12.008;2023-11-21T01:47:08;17.00;88.10
58519;DHT22;44310;48.106;12.008;2023-11-21T01:49:36;17.00;88.30
58519;DHT22;44310;48.106;12.008;2023-11-21T01:52:04;17.00;88.20
58519;DHT22;44310;48.106;12.008;2023-11-21T01:54:33;17.00;88.00
58519;DHT22;44310;48.106;12.008;2023-11-21T01:57:00;17.00;88.00
58519;DHT22;44310;48.106;12.008;2023-11-21T01:59:35;17.00;87.90
58519;DHT22;44310;48.106;12.008;2023-11-21T02:02:05;17.00;88.40
58519;DHT22;44310;48.106;12.008;2023-11-21T02:04:34;17.10;89.30
58519;DHT22;44310;48.106;12.008;2023-11-21T02:07:01;17.20;89.90
58519;DHT22;44310;48.106;12.008;2023-11-21T02:09:29;17.20;90.10
58519;DHT22;44310;48.106;12.008;2023-11-21T02:12:01;17.20;90.10
58519;DHT22;44310;48.106;12.008;2023-11-21T02:14:29;17.20;90.30
58519;DHT22;44310;48.106;12.008;2023-11-21T02:16:57;17.20;90.40
58519;DHT22;44310;48.106;12.008;2023-11-21T02:19:26;17.20;90.60
58519;DHT22;44310;48.106;12.008;2023-11-21T02:21:53;17.30;90.70
58519;DHT22;44310;48.106;12.008;2023-11-21T02:24:21;17.30;90.80
58519;DHT22;44310;48.106;12.008;2023-11-21T02:26:49;17.30;90.90
58519;DHT22;44310;48.106;12.008;2023-11-21T02:29:20;17.20;91.30
58519;DHT22;44310;48.106;12.008;2023-11-21T02:31:55;17.20;91.00
58519;DHT22;44310;48.106;12.008;2023-11-21T02:34:23;17.20;91.20
58519;DHT22;44310;48.106;12.008;2023-11-21T02:36:52;17.20;91.30
58519;DHT22;44310;48.106;12.008;2023-11-21T02:39:19;17.20;91.30
58519;DHT22;44310;48.106;12.008;2023-11-21T02:41:49;17.20;91.40
58519;DHT22;44310;48.106;12.008;2023-11-21T02:44:17;17.20;91.40
58519;DHT22;44310;48.106;12.008;2023-11-21T02:46:44;17.20;91.40
58519;DHT22;44310;48.106;12.008;2023-11-21T02:49:11;17.20;91.40
58519;DHT22;44310;48.106;12.008;2023-11-21T02:51:39;17.20;91.40
58519;DHT22;44310;48.106;12.008;2023-11-21T02:54:06;17.20;91.40
58519;DHT22;44310;48.106;12.008;2023-11-21T02:56:35;17.10;91.50
58519;DHT22;44310;48.106;12.008;2023-11-21T02:59:02;17.30;91.50
58519;DHT22;44310;48.106;12.008;2023-11-21T03:01:30;17.10;91.70
58519;DHT22;44310;48.106;12.008;2023-11-21T03:03:58;17.10;91.20
58519;DHT22;44310;48.106;12.008;2023-11-21T03:06:25;17.10;91.20
58519;DHT22;44310;48.106;12.008;2023-11-21T03:08:52;17.10;91.30
58519;DHT22;44310;48.106;12.008;2023-11-21T03:11:19;17.10;91.40
58519;DHT22;44310;48.106;12.008;2023-11-21T03:13:46;17.10;91.10
58519;DHT22;44310;48.106;12.008;2023-11-21T03:16:15;17.10;91.00
58519;DHT22;44310;48.106;12.008;2023-11-21T03:18:42;17.10;90.90
58519;DHT22;44310;48.106;12.008;2023-11-21T03:21:10;17.10;90.90
58519;DHT22;44310;48.106;12.008;2023-11-21T03:23:37;17.10;90.90
58519;DHT22;44310;48.106;12.008;2023-11-21T03:26:04;17.70;90.90
58519;DHT22;44310;48.106;12.008;2023-11-21T03:28:32;17.10;90.70
58519;DHT22;44310;48.106;12.008;2023-11-21T03:30:59;17.10;90.70
58519;DHT22;44310;48.106;12.008;2023-11-21T03:33:26;17.10;90.70
58519;DHT22;44310;48.106;12.008;2023-11-21T03:35:54;17.10;90.70
58519;DHT22;44310;48.106;12.008;2023-11-21T03:38:21;17.10;90.60
58519;DHT22;44310;48.106;12.008;2023-11-21T03:40:49;17.10;90.60
58519;DHT22;44310;48.106;12.008;2023-11-21T03:43:17;17.10;90.60
58519;DHT22;44310;48.106;12.008;2023-11-21T03:45:45;17.10;90.60
58519;DHT22;44310;48.106;12.008;2023-11-21T03:48:13;17.10;90.70
58519;DHT22;44310;48.106;12.008;2023-11-21T03:50:40;17.10;90.70
58519;DHT22;44310;48.106;12.008;2023-11-21T03:53:08;18.00;90.90
58519;DHT22;44310;48.106;12.008;2023-11-21T03:55:35;17.10;90.70
58519;DHT22;44310;48.106;12.008;2023-11-21T03:58:02;17.10;90.70
58519;DHT22;44310;48.106;12.008;2023-11-21T04:00:30;17.10;90.80
58519;DHT22;44310;48.106;12.008;2023-11-21T04:02:57;17.00;90.70
58519;DHT22;44310;48.106;12.008;2023-11-21T04:05:24;17.10;90.80
58519;DHT22;44310;48.106;12.008;2023-11-21T04:07:51;17.00;90.80
58519;DHT22;44310;48.106;12.008;2023-11-21T04:10:19;17.00;90.80
58519;DHT22;44310;48.106;12.008;2023-11-21T04:12:46;17.00;90.80
58519;DHT22;44310;48.106;12.008;2023-11-21T04:15:13;17.00;90.80
58519;DHT22;44310;48.106;12.008;2023-11-21T04:17:41;17.00;90.90
58519;DHT22;44310;48.106;12.008;2023-11-21T04:20:09;17.10;91.20
58519;DHT22;44310;48.106;12.008;2023-11-21T04:22:39;17.10;91.50
58519;DHT22;44310;48.106;12.008;2023-11-21T04:25:09;17.20;91.80
58519;DHT22;44310;48.106;12.008;2023-11-21T04:27:41;17.20;92.00
58519;DHT22;44310;48.106;12.008;2023-11-21T04:30:11;17.20;92.10
58519;DHT22;44310;48.106;12.008;2023-11-21T04:32:39;17.30;92.30
58519;DHT22;44310;48.106;12.008;2023-11-21T04:35:07;17.30;92.30
58519;DHT22;44310;48.106;12.008;2023-11-21T04:37:35;17.20;92.10
58519;DHT22;44310;48.106;12.008;2023-11-21T04:40:03;17.20;92.10
58519;DHT22;44310;48.106;12.008;2023-11-21T04:42:34;17.20;92.10
58519;DHT22;44310;48.106;12.008;2023-11-21T04:45:04;17.20;92.10
58519;DHT22;44310;48.106;12.008;2023-11-21T04:47:35;17.20;92.10
58519;DHT22;44310;48.106;12.008;2023-11-21T04:50:04;17.20;92.30
58519;DHT22;44310;48.106;12.008;2023-11-21T04:52:31;17.20;92.30
58519;DHT22;44310;48.106;12.008;2023-11-21T04:55:00;17.20;92.40
58519;DHT22;44310;48.106;12.008;2023-11-21T04:57:30;17.20;92.40
58519;DHT22;44310;48.106;12.008;2023-11-21T04:59:57;17.20;92.40
58519;DHT22;44310;48.106;12.008;2023-11-21T05:02:24;17.20;92.40
58519;DHT22;44310;48.106;12.008;2023-11-21T05:05:02;17.20;92.30
58519;DHT22;44310;48.106;12.008;2023-11-21T05:07:32;17.10;92.30
58519;DHT22;44310;48.106;12.008;2023-11-21T05:09:59;17.10;92.30
58519;DHT22;44310;48.106;12.008;2023-11-21T05:12:26;17.10;92.20
58519;DHT22;44310;48.106;12.008;2023-11-21T05:14:53;17.10;92.20
58519;DHT22;44310;48.106;12.008;2023-11-21T05:17:21;17.10;92.10
58519;DHT22;44310;48.106;12.008;2023-11-21T05:19:49;17.30;92.10
58519;DHT22;44310;48.106;12.008;2023-11-21T05:22:16;17.10;92.10
58519;DHT22;44310;48.106;12.008;2023-11-21T05:24:43;17.10;91.90
58519;DHT22;44310;48.106;12.008;2023-11-21T05:27:10;17.10;91.80
58519;DHT22;44310;48.106;12.008;2023-11-21T05:29:38;17.20;91.90
58519;DHT22;44310;48.106;12.008;2023-11-21T05:32:05;17.20;91.90
58519;DHT22;44310;48.106;12.008;2023-11-21T05:34:32;17.20;92.00
58519;DHT22;44310;48.106;12.008;2023-11-21T05:36:59;17.20;92.10
58519;DHT22;44310;48.106;12.008;2023-11-21T05:39:26;17.20;92.20
58519;DHT22;44310;48.106;12.008;2023-11-21T05:41:54;17.30;92.30
58519;DHT22;44310;48.106;12.008;2023-11-21T05:44:22;17.20;92.20
58519;DHT22;44310;48.106;12.008;2023-11-21T05:46:50;17.20;92.10
58519;DHT22;44310;48.106;12.008;2023-11-21T05:49:17;17.20;92.00
58519;DHT22;44310;48.106;12.008;2023-11-21T05:51:48;17.20;91.90
58519;DHT22;44310;48.106;12.008;2023-11-21T05:54:15;17.10;91.80
58519;DHT22;44310;48.106;12.008;2023-11-21T05:56:43;17.10;91.70
58519;DHT22;44310;48.106;12.008;2023-11-21T05:59:11;17.40;91.70
58519;DHT22;44310;48.106;12.008;2023-11-21T06:01:38;17.00;91.50
58519;DHT22;44310;48.106;12.008;2023-11-21T06:04:06;17.10;91.50
58519;DHT22;44310;48.106;12.008;2023-11-21T06:06:36;17.00;91.40
58519;DHT22;44310;48.106;12.008;2023-11-21T06:09:03;17.00;91.30
58519;DHT22;44310;48.106;12.008;2023-11-21T06:11:32;16.90;91.30
58519;DHT22;44310;48.106;12.008;2023-11-21T06:13:59;17.00;91.40
58519;DHT22;44310;48.106;12.008;2023-11-21T06:16:26;17.00;91.30
58519;DHT22;44310;48.106;12.008;2023-11-21T06:18:54;17.00;91.30
58519;DHT22;44310;48.106;12.008;2023-11-21T06:21:22;17.00;91.20
58519;DHT22;44310;48.106;12.008;2023-11-21T06:23:50;17.40;91.30
58519;DHT22;44310;48.106;12.008;2023-11-21T06:26:20;17.00;91.10
58519;DHT22;44310;48.106;12.008;2023-11-21T06:28:47;17.00;91.10
58519;DHT22;44310;48.106;12.008;2023-11-21T06:31:14;17.10;91.50
58519;DHT22;44310;48.106;12.008;2023-11-21T06:33:42;17.10;91.70
58519;DHT22;44310;48.106;12.008;2023-11-21T06:36:10;17.20;91.80
58519;DHT22;44310;48.106;12.008;2023-11-21T06:38:38;17.20;91.80
58519;DHT22;44310;48.106;12.008;2023-11-21T06:41:06;17.20;91.80
58519;DHT22;44310;48.106;12.008;2023-11-21T06:43:33;17.20;91.80
58519;DHT22;44310;48.106;12.008;2023-11-21T06:46:00;17.20;91.70
58519;DHT22;44310;48.106;12.008;2023-11-21T06:48:28;17.20;91.70
58519;DHT22;44310;48.106;12.008;2023-11-21T06:50:57;17.40;91.70
58519;DHT22;44310;48.106;12.008;2023-11-21T06:53:24;17.20;91.60
58519;DHT22;44310;48.106;12.008;2023-11-21T06:55:51;17.00;91.50
58519;DHT22;44310;48.106;12.008;2023-11-21T06:58:20;17.20;91.50
58519;DHT22;44310;48.106;12.008;2023-11-21T07:00:47;17.20;91.40
58519;DHT22;44310;48.106;12.008;2023-11-21T07:03:20;17.20;91.40
58519;DHT22;44310;48.106;12.008;2023-11-21T07:05:47;17.20;91.30
58519;DHT22;44310;48.106;12.008;2023-11-21T07:08:14;17.20;91.30
58519;DHT22;44310;48.106;12.008;2023-11-21T07:10:41;17.10;91.20
58519;DHT22;44310;48.106;12.008;2023-11-21T07:13:08;17.20;91.20
58519;DHT22;44310;48.106;12.008;2023-11-21T07:15:39;17.10;91.20
58519;DHT22;44310;48.106;12.008;2023-11-21T07:18:06;17.20;91.20
58519;DHT22;44310;48.106;12.008;2023-11-21T07:20:34;17.10;91.10
58519;DHT22;44310;48.106;12.008;2023-11-21T07:23:02;17.30;91.20
58519;DHT22;44310;48.106;12.008;2023-11-21T07:25:29;17.20;91.20
58519;DHT22;44310;48.106;12.008;2023-11-21T07:27:56;17.20;91.20
58519;DHT22;44310;48.106;12.008;2023-11-21T07:30:23;17.20;91.20
58519;DHT22;44310;48.106;12.008;2023-11-21T07:32:50;17.20;91.20
58519;DHT22;44310;48.106;12.008;2023-11-21T07:35:17;17.30;91.50
58519;DHT22;44310;48.106;12.008;2023-11-21T07:37:44;17.20;91.20
58519;DHT22;44310;48.106;12.008;2023-11-21T07:40:12;17.20;91.30
58519;DHT22;44310;48.106;12.008;2023-11-21T07:42:39;17.20;91.20
58519;DHT22;44310;48.106;12.008;2023-11-21T07:45:06;17.20;91.10
58519;DHT22;44310;48.106;12.008;2023-11-21T07:47:34;17.10;90.20
58519;DHT22;44310;48.106;12.008;2023-11-21T07:50:03;17.00;90.20
58519;DHT22;44310;48.106;12.008;2023-11-21T07:52:32;16.70;87.00
58519;DHT22;44310;48.106;12.008;2023-11-21T07:54:59;16.50;87.00
58519;DHT22;44310;48.106;12.008;2023-11-21T07:57:26;16.50;87.80
58519;DHT22;44310;48.106;12.008;2023-11-21T07:59:53;16.50;87.70
58519;DHT22;44310;48.106;12.008;2023-11-21T08:02:23;16.50;88.20
58519;DHT22;44310;48.106;12.008;2023-11-21T08:04:51;16.60;89.00
58519;DHT22;44310;48.106;12.008;2023-11-21T08:07:18;16.70;89.10
58519;DHT22;44310;48.106;12.008;2023-11-21T08:09:46;16.70;89.20
58519;DHT22;44310;48.106;12.008;2023-11-21T08:12:14;16.70;89.40
58519;DHT22;44310;48.106;12.008;2023-11-21T08:14:42;16.70;89.70
58519;DHT22;44310;48.106;12.008;2023-11-21T08:17:10;17.10;90.10
58519;DHT22;44310;48.106;12.008;2023-11-21T08:19:37;17.00;90.00
58519;DHT22;44310;48.106;12.008;2023-11-21T08:22:04;17.00;90.10
58519;DHT22;44310;48.106;12.008;2023-11-21T08:24:32;17.30;90.20
58519;DHT22;44310;48.106;12.008;2023-11-21T08:26:59;17.10;90.40
58519;DHT22;44310;48.106;12.008;2023-11-21T08:29:27;17.10;90.50
58519;DHT22;44310;48.106;12.008;2023-11-21T08:31:54;17.10;90.50
58519;DHT22;44310;48.106;12.008;2023-11-21T08:34:22;17.10;90.60
58519;DHT22;44310;48.106;12.008;2023-11-21T08:36:49;17.20;90.80
58519;DHT22;44310;48.106;12.008;2023-11-21T08:39:18;17.20;90.80
58519;DHT22;44310;48.106;12.008;2023-11-21T08:41:46;17.20;90.80
58519;DHT22;44310;48.106;12.008;2023-11-21T08:44:13;17.20;90.90
58519;DHT22;44310;48.106;12.008;2023-11-21T08:46:40;17.20;90.90
58519;DHT22;44310;48.106;12.008;2023-11-21T08:49:08;17.20;91.00
58519;DHT22;44310;48.106;12.008;2023-11-21T08:51:35;17.20;91.00
58519;DHT22;44310;48.106;12.008;2023-11-21T08:54:03;17.20;91.00
58519;DHT22;44310;48.106;12.008;2023-11-21T08:56:34;17.20;91.10
58519;DHT22;44310;48.106;12.008;2023-11-21T08:59:02;17.20;91.10
58519;DHT22;44310;48.106;12.008;2023-11-21T09:01:31;17.80;91.30
58519;DHT22;44310;48.106;12.008;2023-11-21T09:03:58;17.20;91.30
58519;DHT22;44310;48.106;12.008;2023-11-21T09:06:25;17.10;91.00
58519;DHT22;44310;48.106;12.008;2023-11-21T09:08:52;17.10;91.00
58519;DHT22;44310;48.106;12.008;2023-11-21T09:11:20;17.10;91.00
58519;DHT22;44310;48.106;12.008;2023-11-21T09:13:47;17.10;90.90
58519;DHT22;44310;48.106;12.008;2023-11-21T09:16:14;17.10;90.90
58519;DHT22;44310;48.106;12.008;2023-11-21T09:18:43;17.10;90.90
58519;DHT22;44310;48.106;12.008;2023-11-21T09:21:10;17.10;90.90
58519;DHT22;44310;48.106;12.008;2023-11-21T09:23:37;17.10;90.80
58519;DHT22;44310;48.106;12.008;2023-11-21T09:26:04;17.10;90.70
58519;DHT22;44310;48.106;12.008;2023-11-21T09:28:32;17.10;90.70
58519;DHT22;44310;48.106;12.008;2023-11-21T09:30:59;17.10;90.70
58519;DHT22;44310;48.106;12.008;2023-11-21T09:33:27;17.10;90.70
58519;DHT22;44310;48.106;12.008;2023-11-21T09:35:54;17.10;90.60
58519;DHT22;44310;48.106;12.008;2023-11-21T09:38:21;17.10;90.60
58519;DHT22;44310;48.106;12.008;2023-11-21T09:40:49;17.10;90.70
58519;DHT22;44310;48.106;12.008;2023-11-21T09:43:17;17.00;90.20
58519;DHT22;44310;48.106;12.008;2023-11-21T09:45:47;17.00;88.40
58519;DHT22;44310;48.106;12.008;2023-11-21T09:48:15;16.80;87.90
58519;DHT22;44310;48.106;12.008;2023-11-21T09:50:43;16.60;85.90
58519;DHT22;44310;48.106;12.008;2023-11-21T09:53:18;16.40;85.50
58519;DHT22;44310;48.106;12.008;2023-11-21T09:55:50;16.20;84.00
58519;DHT22;44310;48.106;12.008;2023-11-21T09:58:19;16.10;85.10
58519;DHT22;44310;48.106;12.008;2023-11-21T10:00:48;16.00;83.30
58519;DHT22;44310;48.106;12.008;2023-11-21T10:03:15;15.90;83.10
58519;DHT22;44310;48.106;12.008;2023-11-21T10:05:45;15.80;82.30
58519;DHT22;44310;48.106;12.008;2023-11-21T10:08:15;15.90;82.40
58519;DHT22;44310;48.106;12.008;2023-11-21T10:10:44;15.80;81.70
58519;DHT22;44310;48.106;12.008;2023-11-21T10:13:13;15.70;81.00
58519;DHT22;44310;48.106;12.008;2023-11-21T10:15:44;15.80;83.60
58519;DHT22;44310;48.106;12.008;2023-11-21T10:18:16;15.80;82.60
58519;DHT22;44310;48.106;12.008;2023-11-21T10:20:44;15.90;81.40
58519;DHT22;44310;48.106;12.008;2023-11-21T10:23:22;15.80;81.40
58519;DHT22;44310;48.106;12.008;2023-11-21T10:25:52;15.80;80.00
58519;DHT22;44310;48.106;12.008;2023-11-21T10:28:20;15.70;80.60
58519;DHT22;44310;48.106;12.008;2023-11-21T10:30:48;15.70;80.40
58519;DHT22;44310;48.106;12.008;2023-11-21T10:33:16;15.60;80.50
58519;DHT22;44310;48.106;12.008;2023-11-21T10:35:47;15.60;80.10
58519;DHT22;44310;48.106;12.008;2023-11-21T10:38:18;15.60;80.20
58519;DHT22;44310;48.106;12.008;2023-11-21T10:40:45;15.60;80.00
58519;DHT22;44310;48.106;12.008;2023-11-21T10:43:14;15.70;81.40
58519;DHT22;44310;48.106;12.008;2023-11-21T10:45:43;15.80;82.60
58519;DHT22;44310;48.106;12.008;2023-11-21T10:48:12;15.90;83.50
58519;DHT22;44310;48.106;12.008;2023-11-21T10:50:46;16.10;84.10
58519;DHT22;44310;48.106;12.008;2023-11-21T10:53:14;16.10;84.30
58519;DHT22;44310;48.106;12.008;2023-11-21T10:55:42;16.20;84.80
58519;DHT22;44310;48.106;12.008;2023-11-21T10:58:13;16.20;85.00
58519;DHT22;44310;48.106;12.008;2023-11-21T11:00:41;16.20;84.90
58519;DHT22;44310;48.106;12.008;2023-11-21T11:03:09;16.30;85.10
58519;DHT22;44310;48.106;12.008;2023-11-21T11:05:44;16.30;85.30
58519;DHT22;44310;48.106;12.008;2023-11-21T11:08:21;16.30;85.60
58519;DHT22;44310;48.106;12.008;2023-11-21T11:10:54;16.40;85.80
58519;DHT22;44310;48.106;12.008;2023-11-21T11:13:22;16.40;85.80
58519;DHT22;44310;48.106;12.008;2023-11-21T11:15:50;16.40;86.10
58519;DHT22;44310;48.106;12.008;2023-11-21T11:18:18;16.40;86.00
58519;DHT22;44310;48.106;12.008;2023-11-21T11:20:50;16.40;86.20
58519;DHT22;44310;48.106;12.008;2023-11-21T11:26:28;16.40;86.40
58519;DHT22;44310;48.106;12.008;2023-11-21T11:29:34;16.40;86.50
58519;DHT22;44310;48.106;12.008;2023-11-21T11:32:13;16.40;86.70
58519;DHT22;44310;48.106;12.008;2023-11-21T11:34:56;16.40;86.60
58519;DHT22;44310;48.106;12.008;2023-11-21T11:37:29;16.50;86.70
58519;DHT22;44310;48.106;12.008;2023-11-21T11:39:56;16.50;87.00
58519;DHT22;44310;48.106;12.008;2023-11-21T11:42:24;16.50;86.90
58519;DHT22;44310;48.106;12.008;2023-11-21T11:44:52;16.50;86.80
58519;DHT22;44310;48.106;12.008;2023-11-21T11:47:38;16.40;86.90
58519;DHT22;44310;48.106;12.008;2023-11-21T11:50:12;17.30;87.60
58519;DHT22;44310;48.106;12.008;2023-11-21T11:52:50;16.50;87.20
58519;DHT22;44310;48.106;12.008;2023-11-21T11:55:20;16.50;87.20
58519;DHT22;44310;48.106;12.008;2023-11-21T11:57:57;16.40;87.20
58519;DHT22;44310;48.106;12.008;2023-11-21T12:02:59;16.40;87.10
58519;DHT22;44310;48.106;12.008;2023-11-21T12:05:31;16.50;87.60
58519;DHT22;44310;48.106;12.008;2023-11-21T12:08:11;16.50;86.90
58519;DHT22;44310;48.106;12.008;2023-11-21T12:10:39;16.50;86.70
58519;DHT22;44310;48.106;12.008;2023-11-21T12:13:10;16.40;86.60
58519;DHT22;44310;48.106;12.008;2023-11-21T12:15:40;16.50;87.00
58519;DHT22;44310;48.106;12.008;2023-11-21T12:18:08;16.50;86.50
58519;DHT22;44310;48.106;12.008;2023-11-21T12:20:36;16.50;86.40
58519;DHT22;44310;48.106;12.008;2023-11-21T12:23:06;16.50;86.30
58519;DHT22;44310;48.106;12.008;2023-11-21T12:25:33;16.50;86.30
58519;DHT22;44310;48.106;12.008;2023-11-21T12:28:02;16.50;86.30
58519;DHT22;44310;48.106;12.008;2023-11-21T12:30:31;16.40;86.20
58519;DHT22;44310;48.106;12.008;2023-11-21T12:32:59;16.50;86.20
58519;DHT22;44310;48.106;12.008;2023-11-21T12:35:32;16.50;86.10
58519;DHT22;44310;48.106;12.008;2023-11-21T12:38:04;16.50;86.00
58519;DHT22;44310;48.106;12.008;2023-11-21T12:40:36;16.50;86.50
58519;DHT22;44310;48.106;12.008;2023-11-21T12:43:03;16.50;85.20
58519;DHT22;44310;48.106;12.008;2023-11-21T12:45:31;16.40;84.70
58519;DHT22;44310;48.106;12.008;2023-11-21T12:48:05;16.30;84.30
58519;DHT22;44310;48.106;12.008;2023-11-21T12:50:38;16.40;84.60
58519;DHT22;44310;48.106;12.008;2023-11-21T12:53:08;16.40;84.80
58519;DHT22;44310;48.106;12.008;2023-11-21T12:55:37;16.40;85.10
58519;DHT22;44310;48.106;12.008;2023-11-21T12:58:06;16.60;85.90
58519;DHT22;44310;48.106;12.008;2023-11-21T13:00:45;16.50;86.60
58519;DHT22;44310;48.106;12.008;2023-11-21T13:03:14;16.80;87.10
58519;DHT22;44310;48.106;12.008;2023-11-21T13:05:48;16.80;87.30
58519;DHT22;44310;48.106;12.008;2023-11-21T13:08:22;16.80;87.90
58519;DHT22;44310;48.106;12.008;2023-11-21T13:10:55;16.90;88.20
58519;DHT22;44310;48.106;12.008;2023-11-21T13:13:25;16.90;88.50
58519;DHT22;44310;48.106;12.008;2023-11-21T13:15:59;17.00;88.90
58519;DHT22;44310;48.106;12.008;2023-11-21T13:18:33;17.00;89.20
58519;DHT22;44310;48.106;12.008;2023-11-21T13:21:07;17.10;89.50
58519;DHT22;44310;48.106;12.008;2023-11-21T13:23:41;17.10;89.70
58519;DHT22;44310;48.106;12.008;2023-11-21T13:26:09;17.10;90.00
58519;DHT22;44310;48.106;12.008;2023-11-21T13:28:36;17.10;90.10
58519;DHT22;44310;48.106;12.008;2023-11-21T13:31:05;17.10;90.20
58519;DHT22;44310;48.106;12.008;2023-11-21T13:33:49;17.10;90.40
58519;DHT22;44310;48.106;12.008;2023-11-21T13:36:24;17.10;90.60
58519;DHT22;44310;48.106;12.008;2023-11-21T13:38:52;17.20;90.70
58519;DHT22;44310;48.106;12.008;2023-11-21T13:41:19;17.10;90.60
58519;DHT22;44310;48.106;12.008;2023-11-21T13:43:47;17.10;90.70
58519;DHT22;44310;48.106;12.008;2023-11-21T13:46:26;17.10;90.70
58519;DHT22;44310;48.106;12.008;2023-11-21T13:48:53;17.10;90.80
58519;DHT22;44310;48.106;12.008;2023-11-21T13:51:24;17.10;90.80
58519;DHT22;44310;48.106;12.008;2023-11-21T13:54:03;17.10;90.80
58519;DHT22;44310;48.106;12.008;2023-11-21T13:56:37;17.10;90.90
58519;DHT22;44310;48.106;12.008;2023-11-21T13:59:05;17.20;91.00
58519;DHT22;44310;48.106;12.008;2023-11-21T14:01:49;17.10;90.90
58519;DHT22;44310;48.106;12.008;2023-11-21T14:04:20;17.10;90.90
58519;DHT22;44310;48.106;12.008;2023-11-21T14:07:01;17.10;90.90
58519;DHT22;44310;48.106;12.008;2023-11-21T14:09:45;17.10;90.90
58519;DHT22;44310;48.106;12.008;2023-11-21T14:12:12;17.10;90.90
58519;DHT22;44310;48.106;12.008;2023-11-21T14:14:40;17.10;90.90
58519;DHT22;44310;48.106;12.008;2023-11-21T14:17:07;17.10;91.00
58519;DHT22;44310;48.106;12.008;2023-11-21T14:19:34;17.20;91.00
58519;DHT22;44310;48.106;12.008;2023-11-21T14:22:06;17.20;91.00
58519;DHT22;44310;48.106;12.008;2023-11-21T14:24:37;17.20;91.10
58519;DHT22;44310;48.106;12.008;2023-11-21T14:27:04;17.20;91.10
58519;DHT22;44310;48.106;12.008;2023-11-21T14:29:32;17.20;91.20
58519;DHT22;44310;48.106;12.008;2023-11-21T14:32:05;17.20;91.20
58519;DHT22;44310;48.106;12.008;2023-11-21T14:34:34;17.20;91.20
58519;DHT22;44310;48.106;12.008;2023-11-21T14:37:01;17.20;91.20
58519;DHT22;44310;48.106;12.008;2023-11-21T14:39:29;17.40;91.40
58519;DHT22;44310;48.106;12.008;2023-11-21T14:41:57;17.20;91.40
58519;DHT22;44310;48.106;12.008;2023-11-21T14:44:25;17.20;91.40
58519;DHT22;44310;48.106;12.008;2023-11-21T14:46:54;17.20;91.40
58519;DHT22;44310;48.106;12.008;2023-11-21T14:49:25;17.20;91.60
58519;DHT22;44310;48.106;12.008;2023-11-21T14:51:55;17.20;91.60
58519;DHT22;44310;48.106;12.008;2023-11-21T14:54:31;17.20;91.70
58519;DHT22;44310;48.106;12.008;2023-11-21T14:57:12;17.80;91.90
58519;DHT22;44310;48.106;12.008;2023-11-21T14:59:46;17.20;91.80
58519;DHT22;44310;48.106;12.008;2023-11-21T15:02:15;17.20;91.80
58519;DHT22;44310;48.106;12.008;2023-11-21T15:04:45;17.20;91.90
58519;DHT22;44310;48.106;12.008;2023-11-21T15:07:12;17.20;91.90
58519;DHT22;44310;48.106;12.008;2023-11-21T15:09:39;17.20;91.90
58519;DHT22;44310;48.106;12.008;2023-11-21T15:12:09;17.30;91.90
58519;DHT22;44310;48.106;12.008;2023-11-21T15:14:49;17.20;91.90
58519;DHT22;44310;48.106;12.008;2023-11-21T15:17:19;17.20;92.00
58519;DHT22;44310;48.106;12.008;2023-11-21T15:19:54;17.20;92.10
58519;DHT22;44310;48.106;12.008;2023-11-21T15:22:22;17.20;92.10
58519;DHT22;44310;48.106;12.008;2023-11-21T15:24:49;17.20;92.10
58519;DHT22;44310;48.106;12.008;2023-11-21T15:27:17;17.20;92.20
58519;DHT22;44310;48.106;12.008;2023-11-21T15:29:44;17.20;92.20
58519;DHT22;44310;48.106;12.008;2023-11-21T15:32:12;17.30;92.20